Hatsu Ethic — VQFS4 — position and weather

sailwx.info

Track history (hours):
 
Tides and Currents Weather Stations Pressure Air Temp Water Temp Dewpoint Dewpoint Depression Visibility Wind Speed Wind Dir Waves Ship Positions

Hatsu Ethic

Last reported at 2016-Sep-29 21:33 UTC. Time now 2016-Oct-01 01:33 UTC.
Position N 22°36' E 120°09'.

Type: Ship (hazmat cat D). MMSI: 235603000.

Date/timePositionNaut miles runAvg speedWind from/ knotsBaromVisibWave heightAir tempDewpointWater temp
2016-Sep-29 21:33N 22°36' E 120°09'10 8.1
2016-Sep-29 20:22N 22°33' E 120°19'0 0.0
2016-Sep-29 19:28N 22°33' E 120°19'0 0.0
2016-Sep-29 16:28N 22°33' E 120°19'0 0.0
2016-Sep-29 15:28N 22°33' E 120°19'0 0.0
2016-Sep-29 14:22N 22°33' E 120°19'0 0.0
2016-Sep-29 13:22N 22°33' E 120°19'0 0.0
2016-Sep-29 08:22N 22°33' E 120°19'0 0.0
2016-Sep-29 07:10N 22°33' E 120°19'0 0.0
2016-Sep-29 00:28N 22°33' E 120°19'7 2.4
2016-Sep-28 21:32N 22°32' E 120°12'9 4.6
2016-Sep-28 19:33N 22°29' E 120°02'6 2.0
2016-Sep-28 16:33N 22°30' E 120°09'5 4.7
2016-Sep-28 15:33N 22°29' E 120°04'  
2016-Sep-25 17:27N 22°34' E 114°16'0 0.0
2016-Sep-25 15:21N 22°34' E 114°16'16 0.6
2016-Sep-24 09:26N 22°20' E 114°07'  
Track history (hours):
 
Tides and Currents Weather Stations Pressure Air Temp Water Temp Dewpoint Dewpoint Depression Visibility Wind Speed Wind Dir Waves Ship Positions

Hatsu Ethic

Last reported at 2016-Sep-29 21:33 UTC. Time now 2016-Oct-01 01:33 UTC.
Position N 22°36' E 120°09'.

Type: Ship (hazmat cat D). MMSI: 235603000.

Date/timePositionNaut miles runAvg speedWind from/ knotsBaromVisibWave heightAir tempDewpointWater temp
2016-Sep-29 21:33N 22°36' E 120°09'10 8.1
2016-Sep-29 20:22N 22°33' E 120°19'0 0.0
2016-Sep-29 19:28N 22°33' E 120°19'0 0.0
2016-Sep-29 16:28N 22°33' E 120°19'0 0.0
2016-Sep-29 15:28N 22°33' E 120°19'0 0.0
2016-Sep-29 14:22N 22°33' E 120°19'0 0.0
2016-Sep-29 13:22N 22°33' E 120°19'0 0.0
2016-Sep-29 08:22N 22°33' E 120°19'0 0.0
2016-Sep-29 07:10N 22°33' E 120°19'0 0.0
2016-Sep-29 00:28N 22°33' E 120°19'7 2.4
2016-Sep-28 21:32N 22°32' E 120°12'9 4.6
2016-Sep-28 19:33N 22°29' E 120°02'6 2.0
2016-Sep-28 16:33N 22°30' E 120°09'5 4.7
2016-Sep-28 15:33N 22°29' E 120°04'  
2016-Sep-25 17:27N 22°34' E 114°16'0 0.0
2016-Sep-25 15:21N 22°34' E 114°16'16 0.6
2016-Sep-24 09:26N 22°20' E 114°07'  

Dump ship's entire track history